Airfield :
LOGIN :

Register | Disclaimer

   EN    FR    IT 

 










Legend :    VFR   Marginal VFR   IFR   Intensive IFR   Very Intensive IFR
Visi :
Ceiling :
>= 8 km
>= 3000ft
5 to 8 km
1000 to 3000 ft
1500m to 5 km
500 to 1000 ft
800 to 1500m
200 to 500 ft
< 800m
< 200 ft
Symbols :   Thunderstorms  Fog  Heavy snow  Heavy precipitations  Wind > 20 kt
SIGMETs :     Misc.  Thunderstorms  Icing  Turbulence  Mountain Waves  Volcanic Ashes






- Airport Elevation : 53 ft
- IATA code : HAM


EDDH - Hamburg

CURRENT METAR :
  • 141220Z 23015KT 9999 BKN018 06/03 Q0984 TEMPO 23015G30KT

EXPIRED METARs :
  • 141150Z 23015KT 9999 BKN013 05/03 Q0984 BECMG 23015G25KT BKN015
  • 141120Z 22012KT 9999 BKN011 05/03 Q0983 BECMG 23015G25KT BKN015
  • 141050Z 23010KT 9999 -RA BKN011 04/03 Q0983 BECMG BKN015
  • 141020Z 23016KT 9000 -RA BKN013 04/02 Q0983 TEMPO RA
  • 140950Z 23012KT 210V270 9999 BKN016 05/02 Q0982 TEMPO RA BKN012

TAF TAF EDDH
Valid from the 14 at 12:00 until the 15 at 18:00 UTC


141100Z 1412/1518 23009KT 9999 BKN011
BECMG 1412/1414 23014KT SCT025
TEMPO 1413/1417 25015G30KT
BECMG 1501/1503 19008KT
BECMG 1506/1508 23015G25KT
PROB40
TEMPO 1506/1508 RA
PROB30
TEMPO 1506/1509 BKN013



MET'MAP, your aeronautical weather chart ! - Copyright ORBIFLY December 2007 - Disclaimer

ORBIFLY MET'MAP TEAM :

Programming & Development : Alexandra Zaïnal
Concept & original design : Baudouin d'Aumeries
Assistance for programming : Marc-Olivier Méhu
Technical & hardware support : Manuel Goepfert

Contact : metmap@orbifly.com




SOURCES & CREDITS :

   NOAA